Time;durP1;ratioP1;P1;durP2;ratioP2;P2;SDS_P1;SDS_P2;PMS_P1;PMS_P2;Temp;Humidity;BMP_temperature;BMP_pressure;BME280_temperature;BME280_humidity;BME280_pressure;Samples;Min_cycle;Max_cycle;Signal;HPM_P1;HPM_P2
2021/11/22 00:01:20;;;;;;;19.43;11.53;;;6.60;1.00;;;;;;5086462;28;20496;-69
2021/11/22 00:03:47;;;;;;;12.20;8.70;;;6.60;1.00;;;;;;5077926;28;20539;-69
2021/11/22 00:06:15;;;;;;;17.20;9.97;;;6.60;1.00;;;;;;5081966;28;20473;-69
2021/11/22 00:08:42;;;;;;;15.43;10.67;;;6.70;1.00;;;;;;5070034;28;20453;-70
2021/11/22 00:11:09;;;;;;;13.20;8.80;;;6.60;1.00;;;;;;5070259;28;20455;-69
2021/11/22 00:13:35;;;;;;;13.90;9.37;;;6.90;1.00;;;;;;5072099;28;20449;-69
2021/11/22 00:16:04;;;;;;;16.83;10.73;;;6.80;1.00;;;;;;5070204;28;20441;-69
2021/11/22 00:18:31;;;;;;;13.47;8.47;;;6.80;1.00;;;;;;5070344;28;20477;-71
2021/11/22 00:20:58;;;;;;;13.03;9.00;;;6.70;1.00;;;;;;5070832;28;20802;-69
2021/11/22 00:23:25;;;;;;;13.47;8.90;;;6.60;1.00;;;;;;5069362;28;20571;-70
2021/11/22 00:25:52;;;;;;;14.50;9.50;;;6.60;1.00;;;;;;5070004;28;20886;-69
2021/11/22 00:28:19;;;;;;;13.23;9.63;;;6.60;1.00;;;;;;5067181;28;20467;-69
2021/11/22 00:30:46;;;;;;;12.80;8.93;;;7.00;1.00;;;;;;5071583;28;20532;-70
2021/11/22 00:33:14;;;;;;;12.60;9.87;;;6.80;99.90;;;;;;5088176;28;20447;-69
2021/11/22 00:35:46;;;;;;;14.13;9.80;;;6.90;1.00;;;;;;5079256;28;20456;-69
2021/11/22 00:38:13;;;;;;;17.77;12.17;;;6.80;1.00;;;;;;5088907;28;20497;-70
2021/11/22 00:40:39;;;;;;;16.00;9.63;;;6.70;1.00;;;;;;5081559;28;20506;-70
2021/11/22 00:43:07;;;;;;;17.83;11.40;;;6.80;1.00;;;;;;5075527;28;20478;-68
2021/11/22 00:45:34;;;;;;;16.57;10.53;;;6.70;1.00;;;;;;5091126;28;20452;-70
2021/11/22 00:48:02;;;;;;;18.03;11.80;;;6.60;1.00;;;;;;5079522;28;20456;-70
2021/11/22 00:50:32;;;;;;;16.03;9.60;;;6.80;1.00;;;;;;5073475;28;20502;-70
2021/11/22 00:52:58;;;;;;;16.70;10.87;;;6.80;1.00;;;;;;5074301;28;20454;-70
2021/11/22 00:55:25;;;;;;;15.50;11.17;;;6.70;1.00;;;;;;5078047;28;20973;-70
2021/11/22 00:57:53;;;;;;;14.27;9.87;;;6.70;1.00;;;;;;5078445;28;20480;-70
2021/11/22 01:00:22;;;;;;;14.20;9.40;;;6.60;1.00;;;;;;5072716;28;20933;-69
2021/11/22 01:02:49;;;;;;;19.03;10.93;;;6.70;1.00;;;;;;5081153;28;21002;-69
2021/11/22 01:05:16;;;;;;;19.00;11.90;;;6.90;1.00;;;;;;5086876;28;20484;-69
2021/11/22 01:07:44;;;;;;;18.60;10.87;;;6.80;1.00;;;;;;5090666;28;20824;-70
2021/11/22 01:10:13;;;;;;;15.13;10.57;;;6.80;1.00;;;;;;5086272;28;20533;-69
2021/11/22 01:12:40;;;;;;;19.87;13.93;;;6.70;1.00;;;;;;5073371;28;20867;-69
2021/11/22 01:15:09;;;;;;;19.30;11.87;;;6.70;1.00;;;;;;5073076;28;20445;-68
2021/11/22 01:17:36;;;;;;;23.00;12.70;;;6.80;1.00;;;;;;5073028;28;20938;-70
2021/11/22 01:20:06;;;;;;;23.40;11.73;;;6.60;1.00;;;;;;5073231;28;20481;-70
2021/11/22 01:22:33;;;;;;;20.43;13.07;;;6.60;1.00;;;;;;5073165;28;20560;-69
2021/11/22 01:25:01;;;;;;;17.70;12.80;;;6.80;1.00;;;;;;5072990;28;20536;-68
2021/11/22 01:27:28;;;;;;;22.07;12.83;;;6.80;1.00;;;;;;5076766;28;20441;-70
2021/11/22 01:29:55;;;;;;;21.47;12.40;;;6.70;1.00;;;;;;5080637;28;20455;-70
2021/11/22 01:32:22;;;;;;;18.27;11.17;;;6.70;1.00;;;;;;5081005;28;20458;-70
2021/11/22 01:34:48;;;;;;;22.70;13.00;;;6.70;1.00;;;;;;5073459;28;20452;-70
2021/11/22 01:37:15;;;;;;;19.20;11.13;;;6.70;1.00;;;;;;5072255;28;20796;-69
2021/11/22 01:39:42;;;;;;;19.87;10.93;;;6.80;1.00;;;;;;5087108;28;20454;-70
2021/11/22 01:42:10;;;;;;;26.53;13.63;;;6.70;1.00;;;;;;5072270;28;20503;-69
2021/11/22 01:44:37;;;;;;;19.80;10.67;;;6.70;1.00;;;;;;5088266;28;20454;-69
2021/11/22 01:47:04;;;;;;;19.37;10.63;;;6.80;1.00;;;;;;5072521;28;20450;-69
2021/11/22 01:49:31;;;;;;;21.00;12.60;;;6.80;1.00;;;;;;5072660;28;20926;-70
2021/11/22 01:51:58;;;;;;;21.30;11.53;;;6.70;1.00;;;;;;5085487;28;20445;-70
2021/11/22 01:54:25;;;;;;;24.13;13.43;;;6.70;1.00;;;;;;5076174;28;21020;-69
2021/11/22 01:56:52;;;;;;;20.93;12.53;;;6.70;1.00;;;;;;5071899;28;20471;-70
2021/11/22 01:59:20;;;;;;;20.40;11.27;;;6.60;1.00;;;;;;5071414;28;20823;-70
2021/11/22 02:01:48;;;;;;;21.80;11.53;;;6.70;16.00;;;;;;5072711;28;20441;-70
2021/11/22 02:04:16;;;;;;;25.17;12.73;;;6.70;28.30;;;;;;5071595;28;20477;-69
2021/11/22 02:06:44;;;;;;;23.30;11.83;;;6.70;32.50;;;;;;5072053;28;20455;-69
2021/11/22 02:09:11;;;;;;;18.43;11.20;;;6.70;24.40;;;;;;5092045;28;20474;-69
2021/11/22 02:11:38;;;;;;;21.40;11.63;;;6.80;40.50;;;;;;5072116;28;20449;-70
2021/11/22 02:14:06;;;;;;;20.13;11.70;;;6.80;26.00;;;;;;5071903;28;20956;-69
2021/11/22 02:16:34;;;;;;;25.13;12.93;;;6.80;1.00;;;;;;5071914;28;20449;-69
2021/11/22 02:19:02;;;;;;;20.73;11.33;;;7.00;1.00;;;;;;5072570;28;20786;-69
2021/11/22 02:21:31;;;;;;;19.77;11.67;;;6.90;1.00;;;;;;5071393;28;20817;-69
2021/11/22 02:23:58;;;;;;;20.70;11.20;;;7.00;1.00;;;;;;5071796;28;20534;-69
2021/11/22 02:26:26;;;;;;;25.47;12.00;;;6.90;1.00;;;;;;5073335;28;20457;-70
2021/11/22 02:28:53;;;;;;;16.20;10.13;;;6.90;1.00;;;;;;5092149;28;20470;-69
2021/11/22 02:31:21;;;;;;;26.53;13.87;;;6.80;1.00;;;;;;5087958;28;20445;-70
2021/11/22 02:33:52;;;;;;;25.33;14.50;;;6.60;99.90;;;;;;5092389;28;20448;-70
2021/11/22 02:36:19;;;;;;;24.00;13.60;;;6.60;99.90;;;;;;5067878;28;20446;-70
2021/11/22 02:38:47;;;;;;;19.17;12.27;;;6.80;80.20;;;;;;5077957;28;20452;-69
2021/11/22 02:41:15;;;;;;;23.70;14.10;;;6.70;82.20;;;;;;5071500;28;20449;-69
2021/11/22 02:43:44;;;;;;;23.10;12.60;;;6.80;59.30;;;;;;5071550;28;20898;-70
2021/11/22 02:46:12;;;;;;;18.40;12.00;;;6.60;99.90;;;;;;5069901;28;20945;-70
2021/11/22 02:48:40;;;;;;;21.70;12.97;;;6.60;99.90;;;;;;5071558;28;20472;-70
2021/11/22 02:51:07;;;;;;;21.20;13.10;;;6.70;99.90;;;;;;5071060;28;20532;-68
2021/11/22 02:53:35;;;;;;;23.13;13.67;;;6.70;99.90;;;;;;5071636;28;20453;-70
2021/11/22 02:56:06;;;;;;;25.93;12.37;;;6.90;99.90;;;;;;5076187;28;20974;-71
2021/11/22 02:58:35;;;;;;;17.10;11.50;;;6.90;99.90;;;;;;5091715;28;20451;-70
2021/11/22 03:01:03;;;;;;;23.87;12.97;;;6.80;99.90;;;;;;5074245;28;20445;-70
2021/11/22 03:03:32;;;;;;;25.00;13.17;;;6.70;99.90;;;;;;5083821;28;20480;-69
2021/11/22 03:06:09;;;;;;;19.47;12.80;;;6.90;99.90;;;;;;5073824;28;20572;-71
2021/11/22 03:08:37;;;;;;;23.67;14.50;;;6.90;99.90;;;;;;5070427;28;20449;-70
2021/11/22 03:11:05;;;;;;;22.30;13.17;;;6.60;99.90;;;;;;5079808;28;20536;-69
2021/11/22 03:13:33;;;;;;;26.17;15.47;;;6.60;99.90;;;;;;5077695;28;20755;-70
2021/11/22 03:16:00;;;;;;;24.17;13.17;;;6.60;99.90;;;;;;5071055;28;20506;-70
2021/11/22 03:18:27;;;;;;;23.83;13.67;;;6.60;99.90;;;;;;5070609;28;20714;-70
2021/11/22 03:20:54;;;;;;;23.90;12.23;;;6.60;99.90;;;;;;5071286;28;20449;-70
2021/11/22 03:23:22;;;;;;;23.87;15.73;;;6.60;99.90;;;;;;5073767;28;20564;-70
2021/11/22 03:25:49;;;;;;;25.93;14.00;;;6.70;99.90;;;;;;5075971;28;20446;-69
2021/11/22 03:28:20;;;;;;;22.97;15.20;;;6.50;99.90;;;;;;5072130;28;20473;-69
2021/11/22 03:30:48;;;;;;;27.10;15.60;;;6.30;99.90;;;;;;5071264;28;20453;-71
2021/11/22 03:33:15;;;;;;;22.10;13.20;;;6.50;99.90;;;;;;5070552;28;20446;-71
2021/11/22 03:35:43;;;;;;;23.63;13.80;;;6.50;99.90;;;;;;5082588;28;20457;-71
2021/11/22 03:38:12;;;;;;;21.27;13.13;;;6.50;99.90;;;;;;5077791;28;20445;-70
2021/11/22 03:40:40;;;;;;;21.13;13.10;;;6.40;99.90;;;;;;5076107;28;20815;-71
2021/11/22 03:43:14;;;;;;;24.50;13.57;;;6.30;99.90;;;;;;5070817;28;20481;-71
2021/11/22 03:45:46;;;;;;;24.80;14.03;;;6.60;99.90;;;;;;5070513;28;20536;-70
2021/11/22 03:48:14;;;;;;;19.00;14.00;;;6.70;99.90;;;;;;5069494;28;20450;-71
2021/11/22 03:50:42;;;;;;;20.30;12.80;;;6.70;99.90;;;;;;5071238;28;20524;-72
2021/11/22 03:53:09;;;;;;;23.50;14.30;;;6.70;99.90;;;;;;5082579;28;20457;-70
2021/11/22 03:55:37;;;;;;;24.53;14.23;;;6.50;99.90;;;;;;5071453;28;20446;-71
2021/11/22 03:58:03;;;;;;;20.20;12.07;;;6.60;99.90;;;;;;5088674;28;20441;-71
2021/11/22 04:00:30;;;;;;;20.87;13.27;;;6.60;99.90;;;;;;5081875;28;20455;-71
2021/11/22 04:02:59;;;;;;;20.17;11.77;;;6.60;99.90;;;;;;5070087;28;20495;-69
2021/11/22 04:05:26;;;;;;;19.33;11.47;;;6.50;99.90;;;;;;5071768;28;20568;-71
2021/11/22 04:07:52;;;;;;;22.30;12.07;;;6.60;99.90;;;;;;5072418;28;20449;-69
2021/11/22 04:10:19;;;;;;;20.40;11.57;;;6.60;99.90;;;;;;5073197;28;20930;-69
2021/11/22 04:12:46;;;;;;;18.53;10.60;;;6.60;99.90;;;;;;5070134;28;20457;-70
2021/11/22 04:15:13;;;;;;;13.77;8.90;;;6.60;99.90;;;;;;5069965;28;20456;-71
2021/11/22 04:17:40;;;;;;;14.63;9.80;;;6.60;99.90;;;;;;5069779;28;20515;-69
2021/11/22 04:20:09;;;;;;;16.73;9.83;;;6.60;99.90;;;;;;5069763;28;20453;-69
2021/11/22 04:22:36;;;;;;;15.90;10.60;;;6.50;99.90;;;;;;5074131;28;20754;-69
2021/11/22 04:25:05;;;;;;;16.53;10.40;;;6.50;99.90;;;;;;5074354;28;20449;-69
2021/11/22 04:27:33;;;;;;;17.53;11.63;;;6.50;99.90;;;;;;5076916;28;20896;-69
2021/11/22 04:30:00;;;;;;;19.40;12.17;;;6.70;99.90;;;;;;5074191;28;20464;-69
2021/11/22 04:32:27;;;;;;;19.00;11.63;;;6.60;99.90;;;;;;5079548;28;20451;-69
2021/11/22 04:34:54;;;;;;;18.97;11.40;;;6.50;99.90;;;;;;5073938;28;20459;-69
2021/11/22 04:37:26;;;;;;;15.93;10.80;;;6.80;99.90;;;;;;5084908;28;20491;-69
2021/11/22 04:39:53;;;;;;;18.77;11.30;;;6.80;99.90;;;;;;5061047;28;20458;-69
2021/11/22 04:42:20;;;;;;;20.30;11.93;;;6.90;99.90;;;;;;5073202;28;20510;-69
2021/11/22 04:44:47;;;;;;;16.10;10.47;;;6.90;99.90;;;;;;5078163;28;20560;-73
2021/11/22 04:47:15;;;;;;;18.13;10.87;;;6.80;99.90;;;;;;5086646;28;20442;-69
2021/11/22 04:49:42;;;;;;;15.47;10.77;;;6.70;99.90;;;;;;5085993;28;20448;-70
2021/11/22 04:52:09;;;;;;;17.07;10.90;;;6.60;99.90;;;;;;5079071;28;20516;-68
2021/11/22 04:54:39;;;;;;;16.07;10.30;;;6.70;99.90;;;;;;5093858;28;20527;-70
2021/11/22 04:57:07;;;;;;;15.27;10.73;;;6.80;99.90;;;;;;5079336;28;20449;-69
2021/11/22 04:59:34;;;;;;;15.20;9.80;;;6.90;99.90;;;;;;5073493;28;20507;-69
2021/11/22 05:02:01;;;;;;;13.63;10.13;;;6.90;99.90;;;;;;5073159;28;20455;-70
2021/11/22 05:04:28;;;;;;;16.17;10.90;;;6.70;99.90;;;;;;5072418;28;20503;-69
2021/11/22 05:06:55;;;;;;;15.00;9.17;;;6.70;99.90;;;;;;5072824;28;20794;-69
2021/11/22 05:09:22;;;;;;;14.13;9.83;;;6.70;99.90;;;;;;5082053;28;20860;-69
2021/11/22 05:11:51;;;;;;;17.47;10.97;;;6.60;99.90;;;;;;5081960;28;20449;-69
2021/11/22 05:14:18;;;;;;;13.80;8.73;;;6.60;99.90;;;;;;5073018;28;20459;-69
2021/11/22 05:16:46;;;;;;;17.13;10.30;;;6.60;99.90;;;;;;5081802;28;20475;-69
2021/11/22 05:19:14;;;;;;;13.50;9.23;;;6.70;99.90;;;;;;5072499;28;20451;-69
2021/11/22 05:21:41;;;;;;;17.37;9.60;;;6.80;99.90;;;;;;5073089;28;20537;-69
2021/11/22 05:24:09;;;;;;;17.83;11.43;;;6.60;99.90;;;;;;5072189;28;20473;-68
2021/11/22 05:26:36;;;;;;;14.17;9.03;;;6.60;99.90;;;;;;5083194;28;20446;-69
2021/11/22 05:29:08;;;;;;;15.47;9.97;;;6.60;99.90;;;;;;5072722;28;20544;-69
2021/11/22 05:31:36;;;;;;;14.63;9.37;;;6.60;99.90;;;;;;5071763;28;20445;-69
2021/11/22 05:34:04;;;;;;;12.60;8.60;;;6.50;99.90;;;;;;5072776;28;20453;-69
2021/11/22 05:36:33;;;;;;;14.80;9.40;;;6.70;99.90;;;;;;5076826;28;20441;-71
2021/11/22 05:39:00;;;;;;;18.00;7.80;;;6.90;99.90;;;;;;5090347;28;20871;-69
2021/11/22 05:41:26;;;;;;;14.30;8.93;;;6.90;99.90;;;;;;5072584;28;20442;-71
2021/11/22 05:43:53;;;;;;;14.33;9.67;;;6.80;99.90;;;;;;5072625;28;20591;-69
2021/11/22 05:46:22;;;;;;;11.33;7.73;;;6.90;99.90;;;;;;5086208;28;20476;-69
2021/11/22 05:48:48;;;;;;;11.67;9.20;;;6.90;99.90;;;;;;5078271;28;20448;-72
2021/11/22 05:51:15;;;;;;;10.27;7.90;;;6.90;99.90;;;;;;5076025;28;20451;-70
2021/11/22 05:53:44;;;;;;;11.93;8.13;;;6.90;99.90;;;;;;5072442;28;20963;-71
2021/11/22 05:56:11;;;;;;;11.10;8.00;;;6.90;99.90;;;;;;5078663;28;20476;-71
2021/11/22 05:58:38;;;;;;;13.50;9.00;;;6.90;99.90;;;;;;5092639;28;20451;-70
2021/11/22 06:01:07;;;;;;;12.07;8.00;;;6.80;99.90;;;;;;5092596;28;20921;-70
2021/11/22 06:03:35;;;;;;;11.83;8.00;;;6.70;99.90;;;;;;5092653;28;20484;-70
2021/11/22 06:06:03;;;;;;;13.90;7.90;;;6.80;99.90;;;;;;5092363;28;20500;-71
2021/11/22 06:08:30;;;;;;;13.70;8.10;;;6.80;99.90;;;;;;5081900;28;20512;-71
2021/11/22 06:10:57;;;;;;;14.63;10.00;;;6.80;99.90;;;;;;5072435;28;20524;-71
2021/11/22 06:13:24;;;;;;;13.73;8.30;;;6.80;99.90;;;;;;5071198;28;20458;-71
2021/11/22 06:15:51;;;;;;;14.30;8.60;;;6.80;99.90;;;;;;5080612;28;20456;-71
2021/11/22 06:18:19;;;;;;;12.10;7.37;;;6.80;99.90;;;;;;5077372;28;20433;-71
2021/11/22 06:20:48;;;;;;;13.17;7.77;;;6.80;99.90;;;;;;5072681;28;20441;-71
2021/11/22 06:23:15;;;;;;;11.77;8.10;;;6.70;99.90;;;;;;5087985;28;20480;-71
2021/11/22 06:25:42;;;;;;;10.70;7.03;;;6.60;99.90;;;;;;5091544;28;20498;-71
2021/11/22 06:28:09;;;;;;;12.17;9.20;;;6.70;99.90;;;;;;5082033;28;20449;-70
2021/11/22 06:30:36;;;;;;;12.50;8.00;;;6.70;99.90;;;;;;5092402;28;20523;-72
2021/11/22 06:33:03;;;;;;;12.77;7.90;;;6.60;99.90;;;;;;5063649;28;20459;-71
2021/11/22 06:35:31;;;;;;;12.40;7.87;;;6.70;99.90;;;;;;5081601;28;20539;-73
2021/11/22 06:38:01;;;;;;;10.70;6.97;;;6.70;99.90;;;;;;5074629;28;20453;-73
2021/11/22 06:40:28;;;;;;;11.23;6.80;;;6.70;99.90;;;;;;5068744;28;20452;-72
2021/11/22 06:42:55;;;;;;;14.57;8.97;;;6.70;99.90;;;;;;5072398;28;20452;-72
2021/11/22 06:45:22;;;;;;;15.57;8.80;;;6.70;99.90;;;;;;5081722;28;20473;-72
2021/11/22 06:47:49;;;;;;;12.50;7.97;;;6.80;99.90;;;;;;5073096;28;20450;-72
2021/11/22 06:50:17;;;;;;;16.63;7.73;;;6.70;99.90;;;;;;5078829;28;20833;-72
2021/11/22 06:52:45;;;;;;;11.30;7.87;;;6.60;99.90;;;;;;5082883;28;20467;-72
2021/11/22 06:55:13;;;;;;;10.13;7.23;;;6.60;99.90;;;;;;5070163;28;20540;-72
2021/11/22 06:57:40;;;;;;;16.57;8.13;;;6.90;99.90;;;;;;5087004;28;20536;-73
2021/11/22 07:00:10;;;;;;;14.20;6.80;;;6.90;99.90;;;;;;5082658;28;20961;-72
2021/11/22 07:02:38;;;;;;;11.70;7.43;;;6.90;99.90;;;;;;5070378;28;20553;-72
2021/11/22 07:05:06;;;;;;;12.53;7.77;;;7.00;99.90;;;;;;5077540;28;20501;-72
2021/11/22 07:07:33;;;;;;;10.97;7.20;;;6.80;99.90;;;;;;5069016;28;20520;-72
2021/11/22 07:10:00;;;;;;;9.83;7.13;;;6.60;99.90;;;;;;5083046;28;20461;-73
2021/11/22 07:12:29;;;;;;;9.30;6.70;;;6.70;99.90;;;;;;5069983;28;20520;-71
2021/11/22 07:14:55;;;;;;;8.30;6.23;;;6.80;99.90;;;;;;5071107;28;20540;-71
2021/11/22 07:17:22;;;;;;;11.97;6.03;;;6.90;99.90;;;;;;5070409;28;20442;-71
2021/11/22 07:19:49;;;;;;;9.07;5.73;;;6.90;99.90;;;;;;5070980;28;20449;-71
2021/11/22 07:22:17;;;;;;;9.43;5.90;;;6.90;99.90;;;;;;5083845;28;21002;-72
2021/11/22 07:24:45;;;;;;;12.27;7.20;;;6.90;99.90;;;;;;5071875;28;20573;-71
2021/11/22 07:27:13;;;;;;;8.27;6.33;;;6.90;99.90;;;;;;5058504;28;20524;-71
2021/11/22 07:29:42;;;;;;;8.90;6.00;;;6.90;99.90;;;;;;5070527;28;20475;-72
2021/11/22 07:32:10;;;;;;;10.03;6.60;;;6.90;99.90;;;;;;5071062;28;20453;-70
2021/11/22 07:34:39;;;;;;;9.43;6.50;;;6.80;99.90;;;;;;5077967;28;20458;-72
2021/11/22 07:37:06;;;;;;;12.13;7.73;;;6.90;99.90;;;;;;5070330;28;20454;-72
2021/11/22 07:39:33;;;;;;;11.83;6.53;;;6.70;99.90;;;;;;5087387;28;20444;-79
2021/11/22 07:42:00;;;;;;;11.33;6.87;;;6.80;99.90;;;;;;5079684;28;20449;-72
2021/11/22 07:44:26;;;;;;;9.97;6.00;;;6.70;99.90;;;;;;5087534;28;20484;-75
2021/11/22 07:46:56;;;;;;;9.40;6.93;;;6.80;99.90;;;;;;5075308;28;20459;-71
2021/11/22 07:49:23;;;;;;;9.90;6.80;;;6.90;99.90;;;;;;5070397;28;20449;-73
2021/11/22 07:51:50;;;;;;;12.20;7.50;;;6.70;99.90;;;;;;5075196;28;20540;-73
2021/11/22 07:54:17;;;;;;;9.00;6.63;;;6.70;99.90;;;;;;5086993;28;20535;-72
2021/11/22 07:56:44;;;;;;;11.60;7.40;;;6.90;99.90;;;;;;5070102;28;20445;-74
2021/11/22 07:59:11;;;;;;;9.27;6.80;;;6.70;99.90;;;;;;5075272;28;20465;-79
2021/11/22 08:01:39;;;;;;;10.37;7.33;;;6.60;99.90;;;;;;5077537;28;20481;-79
2021/11/22 08:04:12;;;;;;;11.73;7.03;;;6.70;99.90;;;;;;5090369;28;20583;-77
2021/11/22 08:06:40;;;;;;;8.30;6.87;;;6.80;99.90;;;;;;5077567;28;20489;-75
2021/11/22 08:09:13;;;;;;;8.50;6.30;;;7.00;99.90;;;;;;5070570;28;20446;-74
2021/11/22 08:11:49;;;;;;;11.50;7.00;;;7.00;99.90;;;;;;5073073;28;20446;-71
2021/11/22 08:14:16;;;;;;;17.47;10.60;;;7.00;99.90;;;;;;5070388;28;20823;-70
2021/11/22 08:16:43;;;;;;;8.97;6.77;;;7.10;99.90;;;;;;5072347;28;20456;-70
2021/11/22 08:19:11;;;;;;;6.93;5.33;;;7.10;99.90;;;;;;5076027;28;20544;-70
2021/11/22 08:21:38;;;;;;;8.63;6.30;;;7.10;99.90;;;;;;5070599;28;20947;-70
2021/11/22 08:24:06;;;;;;;6.93;5.43;;;7.10;99.90;;;;;;5069823;28;20837;-71
2021/11/22 08:26:33;;;;;;;7.53;5.60;;;7.00;99.90;;;;;;5072233;28;20446;-72
2021/11/22 08:29:00;;;;;;;6.60;5.37;;;7.00;99.90;;;;;;5085999;28;20449;-71
2021/11/22 08:31:26;;;;;;;8.57;5.87;;;7.20;99.90;;;;;;5069605;28;20453;-72
2021/11/22 08:33:53;;;;;;;8.43;5.73;;;7.20;99.90;;;;;;5069408;28;20532;-71
2021/11/22 08:36:22;;;;;;;6.73;5.73;;;7.10;99.90;;;;;;5069070;28;20456;-72
2021/11/22 08:38:49;;;;;;;8.00;6.90;;;7.20;99.90;;;;;;5062460;28;20812;-71
2021/11/22 08:41:17;;;;;;;9.47;5.40;;;7.10;99.90;;;;;;5074287;28;20443;-72
2021/11/22 08:43:44;;;;;;;8.20;6.10;;;7.00;99.90;;;;;;5076794;28;20538;-73
2021/11/22 08:46:11;;;;;;;9.47;5.97;;;7.00;99.90;;;;;;5069302;28;20452;-69
2021/11/22 08:48:38;;;;;;;8.27;5.40;;;7.00;99.90;;;;;;5069861;28;20445;-70
2021/11/22 08:51:05;;;;;;;7.77;5.40;;;7.00;99.90;;;;;;5074582;28;20532;-70
2021/11/22 08:53:33;;;;;;;11.30;5.30;;;7.00;99.90;;;;;;5078203;28;20445;-70
2021/11/22 08:56:00;;;;;;;9.87;5.63;;;7.30;99.90;;;;;;5071513;28;20952;-69
2021/11/22 08:58:27;;;;;;;8.03;4.83;;;7.60;99.90;;;;;;5067946;28;20522;-70
2021/11/22 09:00:54;;;;;;;6.70;5.20;;;7.60;99.90;;;;;;5071825;28;21012;-69
2021/11/22 09:03:21;;;;;;;7.23;4.93;;;7.60;99.90;;;;;;5075569;28;20544;-69
2021/11/22 09:05:48;;;;;;;5.90;4.90;;;7.60;99.90;;;;;;5089156;28;20491;-70
2021/11/22 09:08:16;;;;;;;8.67;5.33;;;8.00;99.90;;;;;;5085729;28;20453;-69
2021/11/22 09:10:44;;;;;;;12.07;5.60;;;7.90;99.90;;;;;;5088471;28;20460;-70
2021/11/22 09:13:14;;;;;;;7.10;4.83;;;7.60;99.90;;;;;;5071446;28;20560;-69
2021/11/22 09:15:42;;;;;;;5.83;5.23;;;7.30;99.90;;;;;;5072702;28;20473;-70
2021/11/22 09:18:09;;;;;;;6.23;4.90;;;7.50;99.90;;;;;;5087036;28;20467;-70
2021/11/22 09:20:36;;;;;;;14.53;9.77;;;7.50;99.90;;;;;;5082067;28;20458;-70
2021/11/22 09:23:04;;;;;;;9.13;6.93;;;7.70;99.90;;;;;;5072814;28;20477;-70
2021/11/22 09:25:31;;;;;;;9.00;5.73;;;7.70;99.90;;;;;;5071801;28;21249;-70
2021/11/22 09:28:01;;;;;;;8.47;5.70;;;7.40;99.90;;;;;;5074267;28;20477;-71
2021/11/22 09:30:28;;;;;;;13.30;8.77;;;7.50;99.90;;;;;;5087566;28;20537;-70
2021/11/22 09:32:55;;;;;;;8.67;6.47;;;7.60;99.90;;;;;;5074903;28;20540;-73
2021/11/22 09:35:26;;;;;;;7.27;5.57;;;7.60;99.90;;;;;;5080076;28;20461;-71
2021/11/22 09:37:53;;;;;;;7.30;5.20;;;7.60;99.90;;;;;;5075505;28;20436;-70
2021/11/22 09:40:20;;;;;;;6.80;5.50;;;7.50;99.90;;;;;;5077060;28;20444;-71
2021/11/22 09:42:47;;;;;;;7.80;5.27;;;7.70;99.90;;;;;;5076109;28;20815;-70
2021/11/22 09:45:19;;;;;;;6.70;5.67;;;7.60;99.90;;;;;;5090288;28;20499;-69
2021/11/22 09:47:45;;;;;;;10.37;5.50;;;7.70;99.90;;;;;;5084955;28;20499;-70
2021/11/22 09:50:12;;;;;;;7.03;5.60;;;7.70;99.90;;;;;;5072121;28;20456;-69
2021/11/22 09:52:39;;;;;;;11.43;6.17;;;7.70;99.90;;;;;;5073637;28;20455;-70
2021/11/22 09:55:07;;;;;;;7.00;5.27;;;7.80;99.90;;;;;;5072746;28;20790;-70
2021/11/22 09:57:34;;;;;;;7.57;5.43;;;7.70;99.90;;;;;;5071330;28;20450;-70
2021/11/22 10:00:01;;;;;;;10.50;6.20;;;7.80;99.90;;;;;;5079710;28;20453;-71
2021/11/22 10:02:44;;;;;;;9.23;5.73;;;7.50;99.90;;;;;;5069935;28;20481;-70
2021/11/22 10:05:22;;;;;;;13.90;6.03;;;7.70;99.90;;;;;;5068296;28;20919;-70
2021/11/22 10:08:04;;;;;;;5.77;4.87;;;7.90;99.90;;;;;;5071699;28;20441;-69
2021/11/22 10:10:36;;;;;;;8.70;5.63;;;7.90;99.90;;;;;;5070381;28;20974;-69
2021/11/22 10:13:19;;;;;;;7.90;5.70;;;7.90;99.90;;;;;;5071954;28;20552;-70
2021/11/22 10:15:46;;;;;;;9.10;5.43;;;8.00;99.90;;;;;;5059970;28;20537;-69
2021/11/22 10:18:20;;;;;;;8.50;6.53;;;7.90;99.90;;;;;;5071701;28;20850;-69
2021/11/22 10:20:47;;;;;;;8.27;5.40;;;7.90;99.90;;;;;;5081824;28;20882;-70
2021/11/22 10:23:14;;;;;;;7.70;6.30;;;8.10;99.90;;;;;;5084682;28;20536;-69
2021/11/22 10:25:42;;;;;;;9.23;6.97;;;8.20;99.90;;;;;;5072204;28;20515;-69
2021/11/22 10:28:12;;;;;;;8.60;5.40;;;8.10;99.90;;;;;;5072527;28;20442;-70
2021/11/22 10:30:42;;;;;;;9.53;6.00;;;8.20;99.90;;;;;;5081987;28;20477;-69
2021/11/22 10:33:11;;;;;;;11.07;6.40;;;8.00;99.90;;;;;;5075320;28;20810;-69
2021/11/22 10:35:40;;;;;;;7.57;5.30;;;8.20;99.90;;;;;;5071817;28;20468;-70
2021/11/22 10:38:12;;;;;;;8.10;5.57;;;8.30;99.90;;;;;;5082078;28;20442;-69
2021/11/22 10:40:41;;;;;;;8.07;6.13;;;8.20;99.90;;;;;;5078636;28;20442;-70
2021/11/22 10:43:09;;;;;;;7.73;5.33;;;8.20;99.90;;;;;;5073174;28;20985;-70
2021/11/22 10:45:41;;;;;;;8.53;5.83;;;8.40;99.90;;;;;;5071373;28;20503;-70
2021/11/22 10:48:18;;;;;;;6.67;5.13;;;8.30;99.90;;;;;;5073839;28;20524;-68
2021/11/22 10:50:51;;;;;;;9.13;6.73;;;8.10;99.90;;;;;;5087393;28;20479;-70
2021/11/22 10:53:46;;;;;;;9.63;5.63;;;8.30;99.90;;;;;;5073868;28;20442;-69
2021/11/22 10:56:15;;;;;;;6.27;4.77;;;8.30;99.90;;;;;;5040101;28;20519;-69
2021/11/22 10:58:50;;;;;;;9.20;6.40;;;8.50;99.90;;;;;;5085243;28;20555;-69
2021/11/22 11:01:21;;;;;;;6.80;5.40;;;8.30;99.90;;;;;;5071865;28;20527;-69
2021/11/22 11:03:55;;;;;;;9.13;5.70;;;8.10;99.90;;;;;;5071437;28;20552;-69
2021/11/22 11:06:41;;;;;;;10.90;5.97;;;8.00;99.90;;;;;;5080845;28;20484;-69
2021/11/22 11:09:12;;;;;;;6.63;4.87;;;8.10;99.90;;;;;;5078110;28;20573;-69
2021/11/22 11:11:39;;;;;;;8.57;5.80;;;8.10;99.90;;;;;;5071013;28;20981;-69
2021/11/22 11:14:08;;;;;;;9.13;5.90;;;8.00;99.90;;;;;;5073093;28;20445;-71
2021/11/22 11:16:36;;;;;;;7.40;5.83;;;8.10;99.90;;;;;;5084601;28;20449;-69
2021/11/22 11:19:06;;;;;;;10.53;6.10;;;7.90;99.90;;;;;;5072766;28;20448;-69
2021/11/22 11:21:36;;;;;;;7.63;4.97;;;8.00;99.90;;;;;;5070567;28;20452;-71
2021/11/22 11:24:04;;;;;;;12.70;5.50;;;7.90;99.90;;;;;;5079691;28;20437;-70
2021/11/22 11:26:33;;;;;;;6.00;4.90;;;7.90;99.90;;;;;;5073304;28;20485;-69
2021/11/22 11:29:00;;;;;;;7.77;6.97;;;8.10;99.90;;;;;;5071234;28;20528;-70
2021/11/22 11:31:28;;;;;;;7.50;5.17;;;7.90;99.90;;;;;;5071086;28;20447;-71
2021/11/22 11:33:56;;;;;;;7.13;5.50;;;8.00;99.90;;;;;;5079819;28;20843;-73
2021/11/22 11:36:56;;;;;;;7.53;5.13;;;8.00;99.90;;;;;;5066193;28;20465;-70
2021/11/22 11:39:59;;;;;;;6.20;5.40;;;7.90;99.90;;;;;;5080390;28;20457;-73
2021/11/22 11:42:58;;;;;;;9.40;6.27;;;7.90;99.90;;;;;;5080151;28;20444;-73
2021/11/22 11:45:31;;;;;;;9.47;5.77;;;7.80;99.90;;;;;;5051810;28;20572;-69
2021/11/22 11:48:06;;;;;;;11.80;6.63;;;7.80;99.90;;;;;;5068007;28;20445;-70
2021/11/22 11:50:35;;;;;;;7.27;6.30;;;8.00;99.90;;;;;;5067487;28;20451;-72
2021/11/22 11:53:05;;;;;;;6.40;5.20;;;8.00;99.90;;;;;;5066442;28;20531;-72
2021/11/22 11:55:35;;;;;;;6.37;4.33;;;7.80;99.90;;;;;;5066967;28;20898;-73
2021/11/22 11:58:24;;;;;;;19.27;8.90;;;8.00;99.90;;;;;;5067817;28;20453;-72
2021/11/22 12:00:54;;;;;;;6.87;4.20;;;8.00;99.90;;;;;;5067813;28;20445;-70
2021/11/22 12:03:21;;;;;;;7.30;4.87;;;8.10;99.90;;;;;;5067088;28;20872;-72
2021/11/22 12:05:50;;;;;;;5.90;4.67;;;8.10;99.90;;;;;;5067570;28;20500;-73
2021/11/22 12:08:22;;;;;;;8.20;5.63;;;8.00;99.90;;;;;;5069966;28;20513;-70
2021/11/22 12:10:51;;;;;;;8.37;5.10;;;8.00;99.90;;;;;;5074537;28;20525;-69
2021/11/22 12:13:19;;;;;;;6.00;4.53;;;7.90;99.90;;;;;;5069620;28;20461;-73
2021/11/22 12:15:50;;;;;;;10.03;5.10;;;8.00;99.90;;;;;;5075859;28;20727;-71
2021/11/22 12:18:31;;;;;;;7.60;4.90;;;8.10;99.90;;;;;;5080342;28;20464;-71
2021/11/22 12:21:05;;;;;;;8.33;4.53;;;8.00;1.00;;;;;;5078929;28;20440;-71
2021/11/22 12:23:48;;;;;;;5.67;4.57;;;8.00;1.00;;;;;;5087581;28;20694;-71
2021/11/22 12:26:28;;;;;;;8.80;4.80;;;8.00;1.00;;;;;;5087509;28;20464;-71
2021/11/22 12:28:55;;;;;;;4.70;3.20;;;8.10;1.00;;;;;;5074898;28;20437;-71
2021/11/22 12:31:29;;;;;;;5.77;3.97;;;8.00;1.00;;;;;;5064280;28;20485;-71
2021/11/22 12:34:08;;;;;;;4.07;3.40;;;7.90;1.00;;;;;;5069447;28;20469;-71
2021/11/22 12:36:50;;;;;;;5.47;4.03;;;7.90;1.00;;;;;;5070947;28;20938;-72
2021/11/22 12:39:27;;;;;;;6.17;3.90;;;8.00;1.00;;;;;;5069862;28;21006;-70
2021/11/22 12:42:16;;;;;;;4.80;3.63;;;7.90;1.00;;;;;;5068895;28;20441;-70
2021/11/22 12:44:57;;;;;;;7.47;3.63;;;7.80;1.00;;;;;;5073142;28;20500;-72
2021/11/22 12:47:27;;;;;;;3.93;3.40;;;7.80;1.00;;;;;;5085281;28;20471;-72
2021/11/22 12:50:10;;;;;;;6.00;4.30;;;7.90;1.00;;;;;;5086224;28;20437;-73
2021/11/22 12:52:37;;;;;;;4.80;3.77;;;7.80;1.00;;;;;;5072679;28;20540;-72
2021/11/22 12:55:13;;;;;;;4.70;4.20;;;7.80;1.00;;;;;;5073028;28;20650;-75
2021/11/22 12:57:44;;;;;;;6.80;4.40;;;7.80;1.00;;;;;;5084998;28;20432;-72
2021/11/22 13:00:21;;;;;;;6.10;3.80;;;7.80;1.00;;;;;;5094122;28;20535;-73